Aérodrome :
LOGIN :

S'inscrire | Disclaimer

   EN    FR    IT 

 










Légende :    VFR   VFR Marginal   IFR   IFR Intensif   IFR Très Intensif
Visi : 
Plafond : 
>= 8 km
>= 3000ft
5 à 8 km
1000 à 3000 ft
1500m à 5 km
500 à 1000 ft
800 à 1500m
200 à 500 ft
< 800m
< 200 ft
Symboles :   Orages  Brouillard  Fortes neiges  Fortes précipitations  Vent > 20 kt
SIGMETs :   Divers  Orages  Givrage  Turbulence  Onde Orograph.  Cendres Volcan.







- Altitude de l'aérodrome : 584 ft
- Voir les cartes d'approche


LFPV - Villacoublay Vélizy

DERNIER METAR :
  • 261830Z AUTO 25006KT 220V280 9999 FEW020 SCT038 OVC045 16/12 Q1015 NOSIG

METARs EXPIRÉS :
  • 261800Z AUTO 24007KT 9999 BKN023 BKN033 OVC043 16/12 Q1015 NOSIG
  • 261730Z AUTO 24007KT 9999 OVC044 16/12 Q1016 NOSIG
  • 261700Z AUTO 25006KT 210V280 9999 SCT027 BKN038 OVC044 16/12 Q1016 NOSIG
  • 261630Z AUTO 27010KT 9999 BKN023 BKN033 OVC046 16/12 Q1016 NOSIG
  • 261600Z AUTO 26007KT 230V290 9999 FEW026 BKN032 OVC040 16/12 Q1016 NOSIG

TAF TAF LFPV
Valide du 26 à 15h jusqu'au 27 à 15h UTC


261400Z 2615/2715 26008KT 9999 BKN030 BKN040
BECMG 2622/2624 BKN014
TEMPO 2700/2706 BKN005
BECMG 2706/2708 NSC
Pas de NOTAMs connus pour ce terrain.



MET'MAP, la Météo Aéronautique d'un coup d'oeil ! - Copyright ORBIFLY Décembre 2007 - Disclaimer

ORBIFLY MET'MAP TEAM :

Programmation & Développement : Alexandra Zaïnal
Conception & Développement : Baudouin d'Aumeries
Co-Programmation & Développement : Marc-Olivier Méhu
Soutien technique & logistique : Manuel Goepfert

Contact : metmap@orbifly.com




SOURCES & CREDITS :

   NOAA